Time;durP1;ratioP1;P1;durP2;ratioP2;P2;SDS_P1;SDS_P2;PMS_P1;PMS_P2;Temp;Humidity;BMP_temperature;BMP_pressure;BME280_temperature;BME280_humidity;BME280_pressure;Samples;Min_cycle;Max_cycle;Signal;HPM_P1;HPM_P2
2022/05/26 00:02:21;;;;;;;11.13;3.43;;;14.80;99.90;;;;;;6210952;23;20193;-81
2022/05/26 00:04:50;;;;;;;10.57;3.03;;;14.90;99.90;;;;;;6238170;23;20241;-81
2022/05/26 00:07:31;;;;;;;9.57;2.73;;;14.80;99.90;;;;;;6235606;23;20194;-83
2022/05/26 00:10:04;;;;;;;15.53;3.67;;;14.90;99.90;;;;;;6240837;23;20220;-82
2022/05/26 00:12:32;;;;;;;11.10;2.83;;;14.80;99.90;;;;;;6239203;23;20215;-81
2022/05/26 00:15:19;;;;;;;8.97;3.17;;;14.70;99.90;;;;;;6239013;23;20495;-81
2022/05/26 00:18:03;;;;;;;9.73;3.07;;;14.70;99.90;;;;;;6238349;23;20178;-82
2022/05/26 00:23:33;;;;;;;9.83;3.40;;;14.70;99.90;;;;;;6238965;23;20224;-82
2022/05/26 00:29:13;;;;;;;12.77;3.03;;;14.80;99.90;;;;;;6214464;23;20187;-82
2022/05/26 00:31:51;;;;;;;20.10;4.20;;;14.80;99.90;;;;;;6237294;23;20213;-82
2022/05/26 00:34:36;;;;;;;14.47;3.40;;;14.80;99.90;;;;;;6238052;23;20173;-82
2022/05/26 00:37:43;;;;;;;9.80;3.80;;;14.80;99.90;;;;;;6237788;23;20253;-84
2022/05/26 00:40:39;;;;;;;12.57;3.70;;;14.70;99.90;;;;;;6238394;23;20213;-82
2022/05/26 00:43:31;;;;;;;15.97;3.73;;;14.70;99.90;;;;;;6239379;23;20327;-83
2022/05/26 00:46:09;;;;;;;14.10;4.23;;;14.70;99.90;;;;;;6205797;23;20213;-82
2022/05/26 00:48:46;;;;;;;16.40;4.17;;;14.60;99.90;;;;;;6232411;23;20197;-82
2022/05/26 00:51:24;;;;;;;16.17;3.70;;;14.80;99.90;;;;;;6235474;23;20166;-83
2022/05/26 00:54:01;;;;;;;13.07;3.73;;;14.70;99.90;;;;;;6236803;23;20243;-82
2022/05/26 00:56:40;;;;;;;12.57;3.27;;;14.70;99.90;;;;;;6234691;23;20174;-82
2022/05/26 00:59:19;;;;;;;16.13;3.97;;;14.60;99.90;;;;;;6235226;23;20181;-84
2022/05/26 01:01:55;;;;;;;10.83;3.23;;;14.80;99.90;;;;;;6238305;23;20233;-82
2022/05/26 01:04:42;;;;;;;15.10;3.60;;;14.80;99.90;;;;;;6235004;23;20187;-82
2022/05/26 01:10:31;;;;;;;17.90;4.30;;;14.90;99.90;;;;;;6238430;23;20238;-84
2022/05/26 01:12:58;;;;;;;17.83;4.50;;;14.80;99.90;;;;;;6237358;23;20419;-83
2022/05/26 01:15:39;;;;;;;17.13;4.73;;;14.80;99.90;;;;;;6241297;23;20182;-82
2022/05/26 01:18:23;;;;;;;15.10;3.67;;;14.80;99.90;;;;;;6239592;23;20170;-83
2022/05/26 01:24:38;;;;;;;15.10;3.60;;;14.70;99.90;;;;;;6236304;23;20237;-82
2022/05/26 01:27:29;;;;;;;15.97;3.97;;;14.70;99.90;;;;;;6234378;23;20277;-82
2022/05/26 01:30:27;;;;;;;14.93;4.03;;;14.70;99.90;;;;;;6209609;23;20190;-83
2022/05/26 01:33:35;;;;;;;14.70;4.20;;;14.70;99.90;;;;;;6227059;23;20193;-82
2022/05/26 01:36:20;;;;;;;15.20;4.23;;;14.60;99.90;;;;;;6239948;23;20181;-83
2022/05/26 01:39:13;;;;;;;14.90;4.07;;;14.70;99.90;;;;;;6238754;23;20191;-84
2022/05/26 01:47:53;;;;;;;20.73;4.07;;;14.60;99.90;;;;;;6214686;23;20244;-82
2022/05/26 01:50:45;;;;;;;20.93;5.27;;;14.60;99.90;;;;;;6238083;23;20271;-83
2022/05/26 01:53:31;;;;;;;16.70;4.37;;;14.60;99.90;;;;;;6240884;23;20190;-82
2022/05/26 01:56:09;;;;;;;17.90;4.67;;;14.60;99.90;;;;;;6237434;23;20212;-82
2022/05/26 01:58:47;;;;;;;15.83;4.17;;;14.60;99.90;;;;;;6240460;23;20157;-82
2022/05/26 02:01:41;;;;;;;18.80;4.20;;;14.50;99.90;;;;;;6239261;23;20209;-84
2022/05/26 02:04:20;;;;;;;14.50;4.23;;;14.60;99.90;;;;;;6238875;23;20192;-83
2022/05/26 02:07:21;;;;;;;18.37;4.23;;;14.60;99.90;;;;;;6238289;23;20209;-85
2022/05/26 02:10:03;;;;;;;16.87;3.87;;;14.60;99.90;;;;;;6239561;23;20181;-82
2022/05/26 02:12:44;;;;;;;17.40;4.50;;;14.60;99.90;;;;;;6237909;23;20196;-83
2022/05/26 02:15:24;;;;;;;19.87;4.63;;;14.60;99.90;;;;;;6233747;23;20189;-84
2022/05/26 02:18:14;;;;;;;20.90;4.37;;;14.50;99.90;;;;;;6210059;23;20173;-84
2022/05/26 02:21:20;;;;;;;14.90;3.83;;;14.50;99.90;;;;;;6234716;23;20193;-84
2022/05/26 02:23:56;;;;;;;18.63;4.23;;;14.40;99.90;;;;;;6238215;23;20197;-83
2022/05/26 02:26:42;;;;;;;21.17;5.75;;;14.50;99.90;;;;;;6239679;23;20411;-85
2022/05/26 02:32:12;;;;;;;20.03;4.43;;;14.50;99.90;;;;;;6239104;23;20204;-82
2022/05/26 02:34:50;;;;;;;19.60;4.60;;;14.50;99.90;;;;;;6234331;23;20178;-83
2022/05/26 02:40:32;;;;;;;17.80;4.50;;;14.50;99.90;;;;;;6237464;23;20216;-84
2022/05/26 02:43:38;;;;;;;18.23;4.57;;;14.40;99.90;;;;;;6240384;23;20189;-84
2022/05/26 02:46:23;;;;;;;17.63;4.57;;;14.30;99.90;;;;;;6209825;23;20213;-84
2022/05/26 02:52:01;;;;;;;23.03;5.07;;;14.30;99.90;;;;;;6239194;23;20185;-83
2022/05/26 02:54:42;;;;;;;19.07;4.93;;;14.30;99.90;;;;;;6241580;23;20196;-83
2022/05/26 02:57:35;;;;;;;23.83;5.80;;;14.20;99.90;;;;;;6241422;23;20151;-83
2022/05/26 03:00:06;;;;;;;17.00;4.87;;;14.20;99.90;;;;;;6240583;23;20189;-81
2022/05/26 03:02:40;;;;;;;22.33;5.80;;;14.20;99.90;;;;;;6236640;23;20192;-84
2022/05/26 03:05:30;;;;;;;23.17;5.10;;;14.20;99.90;;;;;;6237245;23;20212;-83
2022/05/26 03:08:14;;;;;;;26.17;5.03;;;14.10;99.90;;;;;;6239619;23;20198;-82
2022/05/26 03:10:49;;;;;;;21.00;5.00;;;14.10;99.90;;;;;;6235733;23;20197;-84
2022/05/26 03:13:18;;;;;;;20.07;5.43;;;14.20;99.90;;;;;;6239076;23;20242;-82
2022/05/26 03:15:48;;;;;;;24.97;5.23;;;14.10;99.90;;;;;;6206642;23;20218;-82
2022/05/26 03:18:16;;;;;;;20.90;5.13;;;14.00;99.90;;;;;;6220436;23;20185;-82
2022/05/26 03:20:44;;;;;;;19.57;5.63;;;14.00;99.90;;;;;;6234297;23;20182;-83
2022/05/26 03:23:13;;;;;;;22.43;4.77;;;14.00;99.90;;;;;;6233165;23;20211;-82
2022/05/26 03:25:44;;;;;;;22.50;5.00;;;14.00;99.90;;;;;;6232636;23;20201;-84
2022/05/26 03:28:12;;;;;;;17.77;4.97;;;14.00;99.90;;;;;;6229887;23;20189;-83
2022/05/26 03:30:45;;;;;;;20.57;5.77;;;13.90;99.90;;;;;;6233226;23;20212;-82
2022/05/26 03:40:45;;;;;;;19.83;5.00;;;13.90;99.90;;;;;;6204671;23;20237;-83
2022/05/26 03:41:50;;;;;;;19.37;6.07;;;13.90;99.90;;;;;;6233784;23;20513;-83
2022/05/26 03:44:27;;;;;;;20.37;5.33;;;13.90;99.90;;;;;;6234093;23;20213;-84
2022/05/26 03:47:01;;;;;;;23.20;5.27;;;13.90;99.90;;;;;;6232173;23;20661;-82
2022/05/26 03:49:39;;;;;;;26.17;6.20;;;13.90;99.90;;;;;;6200984;23;20198;-81
2022/05/26 03:53:00;;;;;;;24.93;5.90;;;13.90;99.90;;;;;;6218257;23;20220;-82
2022/05/26 03:55:48;;;;;;;26.73;5.50;;;13.90;99.90;;;;;;6239568;23;20184;-84
2022/05/26 03:58:23;;;;;;;22.10;6.10;;;13.80;99.90;;;;;;6238158;23;20208;-82
2022/05/26 04:03:52;;;;;;;28.75;7.90;;;13.90;99.90;;;;;;6228352;23;20454;-82
2022/05/26 04:06:33;;;;;;;25.80;6.30;;;13.90;99.90;;;;;;6207686;23;20220;-83
2022/05/26 04:09:13;;;;;;;21.57;5.67;;;13.90;99.90;;;;;;6231967;23;20216;-83
2022/05/26 04:11:53;;;;;;;21.57;6.63;;;13.80;99.90;;;;;;6235732;23;20264;-83
2022/05/26 04:14:21;;;;;;;21.50;6.33;;;13.80;99.90;;;;;;6234363;23;20193;-81
2022/05/26 04:16:49;;;;;;;25.27;6.10;;;13.90;99.90;;;;;;6236230;23;20233;-83
2022/05/26 04:19:18;;;;;;;18.90;5.73;;;13.80;99.90;;;;;;6235072;23;20245;-81
2022/05/26 04:24:31;;;;;;;19.17;6.97;;;13.80;99.90;;;;;;6234030;23;20258;-82
2022/05/26 04:26:58;;;;;;;26.73;7.17;;;13.90;99.90;;;;;;6203819;23;20229;-83
2022/05/26 04:29:39;;;;;;;26.40;8.50;;;13.80;99.90;;;;;;6237297;23;20404;-81
2022/05/26 04:32:11;;;;;;;25.80;7.50;;;13.90;99.90;;;;;;6205484;23;20216;-83
2022/05/26 04:34:42;;;;;;;23.17;7.67;;;14.00;99.90;;;;;;6232933;23;20630;-83
2022/05/26 04:37:09;;;;;;;27.07;8.33;;;14.00;99.90;;;;;;6233761;23;20183;-81
2022/05/26 04:39:38;;;;;;;24.03;8.90;;;13.90;99.90;;;;;;6234182;23;20196;-81
2022/05/26 04:42:15;;;;;;;22.50;8.90;;;13.90;99.90;;;;;;6237786;23;20244;-82
2022/05/26 04:45:06;;;;;;;27.53;8.53;;;13.90;99.90;;;;;;6208129;23;20181;-83
2022/05/26 04:47:35;;;;;;;28.27;9.67;;;13.90;99.90;;;;;;6237653;23;20221;-82
2022/05/26 04:50:25;;;;;;;33.07;8.87;;;13.80;99.90;;;;;;6237973;23;20200;-84
2022/05/26 04:52:53;;;;;;;21.77;9.00;;;13.80;99.90;;;;;;6233406;23;20169;-81
2022/05/26 04:55:26;;;;;;;24.83;10.33;;;13.70;99.90;;;;;;6233413;23;20190;-82
2022/05/26 04:58:15;;;;;;;26.43;10.03;;;13.80;99.90;;;;;;6237995;23;20189;-82
2022/05/26 05:00:43;;;;;;;22.17;10.70;;;13.70;99.90;;;;;;6228912;23;20663;-81
2022/05/26 05:06:14;;;;;;;25.07;9.07;;;13.70;99.90;;;;;;6230182;23;20200;-81
2022/05/26 05:08:42;;;;;;;22.27;8.67;;;13.70;99.90;;;;;;6229974;23;20258;-82
2022/05/26 05:11:34;;;;;;;25.67;8.30;;;13.70;99.90;;;;;;6234367;23;20220;-82
2022/05/26 05:14:07;;;;;;;19.43;7.10;;;13.80;99.90;;;;;;6233670;23;20185;-82
2022/05/26 05:25:47;;;;;;;20.20;5.07;;;13.80;99.90;;;;;;6225525;23;20210;-93
2022/05/26 05:29:15;;;;;;;19.07;5.40;;;13.90;99.90;;;;;;6192876;23;20215;-93
2022/05/26 05:38:22;;;;;;;23.80;4.87;;;14.00;99.90;;;;;;6201433;23;20264;-94
2022/05/26 05:41:39;;;;;;;18.07;5.37;;;14.00;99.90;;;;;;6205038;23;20189;-93
2022/05/26 05:44:12;;;;;;;18.63;5.47;;;14.00;99.90;;;;;;6216966;23;20630;-92
2022/05/26 05:50:39;;;;;;;24.27;7.00;;;14.20;99.90;;;;;;6224164;23;20182;-95
2022/05/26 06:00:06;;;;;;;24.17;8.20;;;14.30;99.90;;;;;;6226619;23;20165;-94
2022/05/26 06:06:05;;;;;;;21.83;8.60;;;14.40;99.90;;;;;;6221792;23;20206;-94
2022/05/26 06:08:38;;;;;;;21.38;10.25;;;14.50;99.90;;;;;;6187062;23;20396;-94
2022/05/26 06:11:06;;;;;;;27.87;9.30;;;14.60;99.90;;;;;;6217603;23;20187;-95
2022/05/26 06:14:06;;;;;;;23.10;9.50;;;14.60;99.90;;;;;;6219174;23;20699;-96
2022/05/26 06:16:50;;;;;;;25.90;9.73;;;14.60;99.90;;;;;;6219925;23;20197;-93
2022/05/26 06:22:26;;;;;;;23.37;9.37;;;14.70;99.90;;;;;;6218542;23;20224;-94
2022/05/26 06:25:13;;;;;;;20.40;9.57;;;14.70;99.90;;;;;;6223424;23;20277;-94
2022/05/26 06:30:46;;;;;;;26.83;9.80;;;14.80;99.90;;;;;;6223378;23;20213;-94
2022/05/26 06:48:03;;;;;;;22.13;10.37;;;14.90;99.90;;;;;;6216527;23;20281;-94
2022/05/26 06:50:40;;;;;;;18.93;9.13;;;14.90;99.90;;;;;;6222667;23;20191;-94
2022/05/26 06:53:10;;;;;;;19.67;8.80;;;15.00;99.90;;;;;;6219038;23;20178;-94
2022/05/26 06:55:38;;;;;;;20.13;8.80;;;15.20;99.90;;;;;;6220129;23;20590;-94
2022/05/26 06:58:06;;;;;;;19.30;8.00;;;15.40;99.90;;;;;;6220850;23;20209;-96
2022/05/26 07:00:33;;;;;;;17.27;7.73;;;15.50;99.90;;;;;;6188234;23;20241;-96
2022/05/26 07:03:25;;;;;;;15.20;7.43;;;15.60;99.90;;;;;;6222032;23;20245;-93
2022/05/26 07:05:55;;;;;;;15.27;7.00;;;15.60;99.90;;;;;;6222883;23;20206;-95
2022/05/26 07:08:24;;;;;;;16.00;7.23;;;15.60;99.90;;;;;;6226393;23;20206;-95
2022/05/26 07:11:08;;;;;;;16.47;6.83;;;15.50;99.90;;;;;;6231447;23;20187;-93
2022/05/26 07:13:56;;;;;;;19.43;6.50;;;15.50;99.90;;;;;;6222033;23;20189;-94
2022/05/26 07:16:30;;;;;;;14.97;6.37;;;15.40;99.90;;;;;;6221430;23;20206;-92
2022/05/26 07:18:58;;;;;;;18.03;6.73;;;15.50;99.90;;;;;;6219993;23;20249;-96
2022/05/26 07:21:25;;;;;;;13.23;5.93;;;15.60;99.90;;;;;;6219150;23;20199;-96
2022/05/26 07:24:04;;;;;;;16.20;6.00;;;15.80;99.90;;;;;;6220532;23;20186;-92
2022/05/26 07:26:34;;;;;;;15.30;5.53;;;15.90;99.90;;;;;;6219075;23;20286;-91
2022/05/26 07:29:06;;;;;;;15.07;5.23;;;15.90;99.90;;;;;;6221419;23;20185;-91
2022/05/26 07:31:34;;;;;;;11.43;4.53;;;15.90;99.90;;;;;;6220488;23;20627;-93
2022/05/26 07:34:08;;;;;;;15.27;5.80;;;16.00;99.90;;;;;;6219794;23;20183;-92
2022/05/26 07:42:13;;;;;;;13.83;4.83;;;16.10;99.90;;;;;;6224967;23;20234;-95
2022/05/26 07:44:43;;;;;;;12.50;5.30;;;16.30;99.90;;;;;;6222288;23;20519;-96
2022/05/26 07:47:12;;;;;;;16.40;5.13;;;16.50;99.90;;;;;;6222161;23;20280;-96
2022/05/26 07:49:43;;;;;;;16.30;5.37;;;16.60;99.90;;;;;;6238004;23;20179;-95
2022/05/26 07:52:11;;;;;;;20.87;5.27;;;16.90;99.90;;;;;;6224603;23;20583;-95
2022/05/26 07:54:40;;;;;;;15.83;4.87;;;16.80;99.90;;;;;;6227592;22;20269;-94
2022/05/26 07:57:12;;;;;;;14.83;4.23;;;16.80;99.90;;;;;;6189468;23;20268;-96
2022/05/26 07:59:39;;;;;;;16.57;4.40;;;16.40;99.90;;;;;;6205185;23;20207;-96
2022/05/26 08:02:09;;;;;;;12.97;4.87;;;16.20;99.90;;;;;;6218621;23;20235;-95
2022/05/26 08:04:37;;;;;;;12.80;4.77;;;16.20;99.90;;;;;;6217991;23;20227;-95
2022/05/26 08:07:06;;;;;;;13.03;3.97;;;16.40;99.90;;;;;;6217856;23;20201;-94
2022/05/26 08:09:33;;;;;;;16.50;5.00;;;16.70;99.90;;;;;;6217747;23;20239;-95
2022/05/26 08:12:02;;;;;;;10.37;4.20;;;17.00;99.90;;;;;;6218085;23;20188;-96
2022/05/26 08:14:29;;;;;;;15.70;4.40;;;16.80;99.90;;;;;;6217355;23;20188;-96
2022/05/26 08:17:00;;;;;;;11.20;3.87;;;16.80;99.90;;;;;;6218811;23;20185;-96
2022/05/26 08:19:29;;;;;;;9.87;3.60;;;16.90;99.90;;;;;;6218680;23;20290;-95
2022/05/26 08:21:58;;;;;;;12.53;3.77;;;17.20;99.90;;;;;;6222634;23;20184;-96
2022/05/26 08:24:27;;;;;;;11.53;3.47;;;17.30;99.90;;;;;;6228896;23;20239;-95
2022/05/26 08:26:58;;;;;;;11.97;3.53;;;17.30;99.90;;;;;;6229203;23;20201;-95
2022/05/26 08:29:50;;;;;;;10.90;3.93;;;17.40;99.90;;;;;;6229720;23;20182;-95
2022/05/26 08:36:20;;;;;;;10.43;3.63;;;17.50;99.90;;;;;;6232027;23;20411;-96
2022/05/26 08:38:59;;;;;;;11.40;3.60;;;17.80;99.90;;;;;;6198328;23;20188;-96
2022/05/26 08:41:42;;;;;;;13.23;3.27;;;17.80;99.90;;;;;;6198563;23;20191;-95
2022/05/26 08:44:23;;;;;;;12.30;3.47;;;17.90;99.90;;;;;;6220835;23;20182;-96
2022/05/26 08:47:03;;;;;;;10.57;2.90;;;17.90;99.90;;;;;;6225346;23;20211;-95
2022/05/26 08:49:41;;;;;;;10.03;3.53;;;17.80;99.90;;;;;;6226421;23;20185;-94
2022/05/26 08:52:40;;;;;;;7.20;2.90;;;17.80;99.90;;;;;;6232482;23;20214;-92
2022/05/26 08:55:33;;;;;;;10.10;2.90;;;17.40;99.90;;;;;;6209922;23;20281;-94
2022/05/26 08:58:26;;;;;;;11.03;3.37;;;17.60;99.90;;;;;;6235443;23;20190;-90
2022/05/26 09:01:07;;;;;;;11.98;3.38;;;17.60;99.90;;;;;;6233466;23;20394;-92
2022/05/26 09:13:06;;;;;;;6.20;2.47;;;18.00;99.90;;;;;;6234684;23;20224;-90
2022/05/26 09:18:45;;;;;;;8.10;3.00;;;17.50;99.90;;;;;;6211525;23;20191;-89
2022/05/26 09:27:36;;;;;;;9.90;2.83;;;17.90;99.90;;;;;;6211923;23;20235;-88
2022/05/26 09:30:34;;;;;;;5.23;2.90;;;18.00;99.90;;;;;;6203852;23;20217;-90
2022/05/26 09:33:03;;;;;;;11.33;3.00;;;17.70;99.90;;;;;;6200626;23;20183;-91
2022/05/26 09:35:42;;;;;;;6.97;2.50;;;17.70;99.90;;;;;;6201828;23;20203;-95
2022/05/26 09:38:17;;;;;;;8.77;3.00;;;17.90;99.90;;;;;;6201326;23;20183;-95
2022/05/26 09:40:51;;;;;;;9.10;2.73;;;18.10;99.90;;;;;;6200990;23;20193;-96
2022/05/26 09:46:24;;;;;;;10.93;3.13;;;17.80;99.90;;;;;;6195193;23;20225;-96
2022/05/26 09:48:59;;;;;;;6.67;2.80;;;17.90;99.90;;;;;;6199927;23;20202;-96
2022/05/26 09:52:05;;;;;;;7.93;2.90;;;18.20;99.90;;;;;;6197678;23;20664;-90
2022/05/26 09:54:35;;;;;;;6.93;2.40;;;18.30;99.90;;;;;;6193204;23;20213;-90
2022/05/26 09:57:25;;;;;;;10.30;2.53;;;18.20;99.90;;;;;;6191258;23;20258;-92
2022/05/26 10:00:31;;;;;;;6.47;1.93;;;18.40;99.90;;;;;;6194334;23;20247;-93
2022/05/26 10:03:19;;;;;;;8.00;2.57;;;18.30;99.90;;;;;;6198920;23;20654;-91
2022/05/26 10:06:06;;;;;;;4.27;2.20;;;18.10;99.90;;;;;;6214525;22;20245;-94
2022/05/26 10:08:57;;;;;;;5.87;2.10;;;18.10;99.90;;;;;;6226981;23;20202;-93
2022/05/26 10:11:44;;;;;;;7.60;2.37;;;18.50;99.90;;;;;;6223483;23;20186;-92
2022/05/26 10:14:35;;;;;;;5.93;2.88;;;18.70;99.90;;;;;;6221768;23;20391;-92
2022/05/26 10:17:25;;;;;;;8.70;2.67;;;19.00;99.90;;;;;;6184366;23;20587;-92
2022/05/26 10:20:25;;;;;;;5.33;2.17;;;19.00;99.90;;;;;;6214008;23;20256;-90
2022/05/26 10:23:51;;;;;;;6.40;2.50;;;18.70;99.90;;;;;;6223515;23;20623;-92
2022/05/26 10:26:33;;;;;;;5.70;2.50;;;18.70;99.90;;;;;;6218519;23;20223;-90
2022/05/26 10:32:27;;;;;;;4.97;1.90;;;19.10;99.90;;;;;;6196503;23;20199;-91
2022/05/26 10:35:27;;;;;;;6.07;2.80;;;19.40;99.90;;;;;;6223540;23;20548;-91
2022/05/26 10:38:32;;;;;;;5.78;2.13;;;19.30;99.90;;;;;;6221468;23;20398;-90
2022/05/26 10:41:07;;;;;;;4.07;1.90;;;19.30;99.90;;;;;;6196866;23;20193;-90
2022/05/26 10:43:50;;;;;;;8.00;2.47;;;19.40;99.90;;;;;;6219395;23;20186;-91
2022/05/26 10:46:30;;;;;;;4.60;1.80;;;19.60;99.90;;;;;;6217730;23;20453;-90
2022/05/26 10:49:16;;;;;;;3.03;1.53;;;19.70;99.90;;;;;;6220019;23;20198;-90
2022/05/26 10:51:57;;;;;;;6.57;2.07;;;19.50;99.90;;;;;;6218604;23;20214;-91
2022/05/26 10:54:38;;;;;;;4.70;1.97;;;19.50;99.90;;;;;;6217917;23;20212;-90
2022/05/26 10:57:15;;;;;;;4.27;1.60;;;19.30;99.90;;;;;;6218619;23;20202;-89
2022/05/26 10:59:50;;;;;;;6.80;2.00;;;19.50;99.90;;;;;;6218866;23;20574;-90
2022/05/26 11:02:32;;;;;;;6.57;1.60;;;19.50;99.90;;;;;;6218217;23;20268;-88
2022/05/26 11:05:06;;;;;;;5.23;1.87;;;19.50;99.90;;;;;;6219559;23;20712;-89
2022/05/26 11:07:50;;;;;;;4.23;1.63;;;19.40;99.90;;;;;;6220326;23;20249;-92
2022/05/26 11:13:29;;;;;;;5.83;1.80;;;19.40;99.90;;;;;;6217978;23;20194;-88
2022/05/26 11:18:54;;;;;;;4.20;1.37;;;19.90;99.90;;;;;;6218898;23;20187;-90
2022/05/26 11:21:43;;;;;;;3.47;1.30;;;19.60;99.90;;;;;;6219907;23;20201;-91
2022/05/26 11:24:24;;;;;;;4.70;1.60;;;19.40;99.90;;;;;;6221963;23;20269;-90
2022/05/26 11:27:10;;;;;;;5.13;1.30;;;19.40;99.90;;;;;;6220334;23;20257;-89
2022/05/26 11:29:53;;;;;;;5.13;1.90;;;19.40;99.90;;;;;;6219998;23;20205;-89
2022/05/26 11:38:17;;;;;;;5.37;1.93;;;19.90;99.90;;;;;;6218411;23;20570;-88
2022/05/26 11:40:47;;;;;;;5.93;2.00;;;20.30;99.90;;;;;;6217784;23;20639;-92
2022/05/26 11:43:28;;;;;;;3.83;1.73;;;20.60;99.90;;;;;;6218206;23;20182;-88
2022/05/26 11:46:03;;;;;;;6.23;1.80;;;20.40;99.90;;;;;;6218626;23;20225;-88
2022/05/26 11:48:47;;;;;;;3.47;1.60;;;20.30;99.90;;;;;;6194328;23;20205;-89
2022/05/26 11:51:35;;;;;;;5.87;1.70;;;20.10;99.90;;;;;;6213754;23;20183;-89
2022/05/26 11:54:03;;;;;;;6.00;1.83;;;20.10;99.90;;;;;;6216058;23;20185;-89
2022/05/26 12:00:15;;;;;;;4.90;1.70;;;20.00;99.90;;;;;;6217602;23;20178;-92
2022/05/26 12:02:45;;;;;;;7.10;1.77;;;19.90;99.90;;;;;;6218922;23;20209;-92
2022/05/26 12:05:45;;;;;;;5.07;1.40;;;20.30;99.90;;;;;;6217915;23;20210;-90
2022/05/26 12:08:36;;;;;;;4.63;1.47;;;20.40;99.90;;;;;;6218300;23;20198;-96
2022/05/26 12:11:09;;;;;;;4.87;1.77;;;20.40;99.90;;;;;;6218845;23;20516;-91
2022/05/26 12:13:40;;;;;;;4.97;1.60;;;20.20;99.90;;;;;;6217653;23;20190;-94
2022/05/26 12:16:33;;;;;;;3.80;1.77;;;20.20;99.90;;;;;;6217541;23;20186;-89
2022/05/26 12:19:06;;;;;;;5.67;1.90;;;20.20;99.90;;;;;;6217230;23;20186;-91
2022/05/26 12:22:11;;;;;;;3.93;1.63;;;20.10;99.90;;;;;;6217650;23;20567;-88
2022/05/26 12:25:07;;;;;;;7.63;2.70;;;20.20;99.90;;;;;;6194059;23;20226;-92
2022/05/26 12:27:58;;;;;;;6.63;1.50;;;20.50;99.90;;;;;;6217235;23;20201;-89
2022/05/26 12:30:56;;;;;;;5.07;1.77;;;20.70;99.90;;;;;;6217738;23;20209;-89
2022/05/26 12:33:51;;;;;;;4.87;1.70;;;20.50;99.90;;;;;;6217595;23;20258;-90
2022/05/26 12:36:30;;;;;;;11.00;2.27;;;20.60;99.90;;;;;;6217811;23;20285;-89
2022/05/26 12:39:10;;;;;;;3.53;1.73;;;20.70;99.90;;;;;;6216814;23;20194;-90
2022/05/26 12:41:50;;;;;;;5.50;2.00;;;20.50;99.90;;;;;;6215628;23;20798;-93
2022/05/26 12:44:46;;;;;;;3.90;1.40;;;20.60;99.90;;;;;;6217069;23;20265;-88
2022/05/26 12:47:29;;;;;;;3.93;1.70;;;20.70;99.90;;;;;;6212242;23;20190;-90
2022/05/26 12:50:05;;;;;;;5.80;2.00;;;20.70;99.90;;;;;;6216872;23;20226;-90
2022/05/26 12:52:40;;;;;;;3.70;1.37;;;20.70;99.90;;;;;;6217576;23;20206;-92
2022/05/26 12:55:19;;;;;;;3.83;1.60;;;20.60;99.90;;;;;;6217588;23;20285;-91
2022/05/26 12:57:52;;;;;;;3.60;1.50;;;20.80;99.90;;;;;;6217152;23;20189;-91
2022/05/26 13:00:24;;;;;;;4.77;1.60;;;20.70;99.90;;;;;;6217589;23;20194;-90
2022/05/26 13:02:53;;;;;;;7.40;1.87;;;20.60;99.90;;;;;;6217536;23;20182;-90
2022/05/26 13:05:21;;;;;;;5.17;1.60;;;20.70;99.90;;;;;;6217366;23;20597;-90
2022/05/26 13:07:53;;;;;;;6.13;1.70;;;20.80;99.90;;;;;;6217455;23;20623;-92
2022/05/26 13:10:25;;;;;;;7.30;2.07;;;20.80;99.90;;;;;;6218034;23;20256;-91
2022/05/26 13:12:56;;;;;;;4.70;1.63;;;20.40;99.90;;;;;;6218029;23;20526;-91
2022/05/26 13:15:26;;;;;;;5.60;1.80;;;20.60;99.90;;;;;;6217795;23;20203;-91
2022/05/26 13:17:54;;;;;;;5.33;1.97;;;20.50;99.90;;;;;;6219505;23;20194;-91
2022/05/26 13:20:34;;;;;;;5.20;1.50;;;20.60;99.90;;;;;;6219474;23;20170;-91
2022/05/26 13:23:04;;;;;;;5.47;1.90;;;20.70;99.90;;;;;;6220838;23;20171;-91
2022/05/26 13:25:34;;;;;;;4.63;1.90;;;20.80;99.90;;;;;;6219857;23;20192;-93
2022/05/26 13:28:03;;;;;;;5.77;1.50;;;20.90;99.90;;;;;;6218861;23;20206;-92
2022/05/26 13:33:22;;;;;;;3.33;1.30;;;21.00;99.90;;;;;;6220836;23;20259;-92
2022/05/26 13:35:53;;;;;;;2.37;1.30;;;21.00;99.90;;;;;;6219861;23;20521;-92
2022/05/26 13:38:27;;;;;;;5.53;1.53;;;21.00;99.90;;;;;;6218976;23;20171;-91
2022/05/26 13:40:54;;;;;;;6.20;2.00;;;21.40;99.90;;;;;;6219316;23;20199;-94
2022/05/26 13:43:22;;;;;;;3.43;1.70;;;21.50;99.90;;;;;;6217827;23;20181;-92
2022/05/26 13:45:49;;;;;;;5.93;1.70;;;21.00;99.90;;;;;;6217458;23;20228;-93
2022/05/26 13:48:34;;;;;;;8.70;1.60;;;21.00;99.90;;;;;;6216500;23;20251;-89
2022/05/26 13:51:15;;;;;;;3.10;1.53;;;20.70;99.90;;;;;;6216163;23;20177;-92
2022/05/26 13:53:46;;;;;;;4.00;1.50;;;20.60;99.90;;;;;;6215963;23;20430;-93
2022/05/26 13:56:24;;;;;;;3.43;1.50;;;20.60;99.90;;;;;;6216886;23;20457;-92
2022/05/26 13:58:53;;;;;;;4.07;1.50;;;20.80;99.90;;;;;;6216326;23;20182;-91
2022/05/26 14:01:25;;;;;;;4.97;1.67;;;20.80;99.90;;;;;;6216521;23;20196;-92
2022/05/26 14:03:58;;;;;;;4.90;1.47;;;20.80;99.90;;;;;;6216350;23;20242;-95
2022/05/26 14:06:31;;;;;;;3.33;1.40;;;20.80;99.90;;;;;;6216526;23;20270;-92
2022/05/26 14:09:02;;;;;;;5.33;1.50;;;20.60;99.90;;;;;;6216266;23;20197;-92
2022/05/26 14:11:38;;;;;;;3.50;1.50;;;20.60;99.90;;;;;;6217473;23;20190;-90
2022/05/26 14:14:24;;;;;;;3.47;1.70;;;20.80;99.90;;;;;;6217566;23;20582;-94
2022/05/26 14:16:52;;;;;;;4.10;1.60;;;20.50;99.90;;;;;;6217181;23;20181;-92
2022/05/26 14:19:21;;;;;;;6.97;2.00;;;20.80;99.90;;;;;;6215261;23;20721;-90
2022/05/26 14:21:52;;;;;;;7.80;1.90;;;20.70;99.90;;;;;;6217231;23;20236;-89
2022/05/26 14:24:48;;;;;;;4.03;1.30;;;20.50;99.90;;;;;;6219545;23;20214;-84
2022/05/26 14:33:31;;;;;;;4.17;1.50;;;20.30;99.90;;;;;;6214399;23;20222;-91
2022/05/26 14:36:17;;;;;;;;;;;;;;;;;;;;;
2022/05/26 14:38:55;;;;;;;4.83;1.53;;;20.10;99.90;;;;;;6217663;23;20184;-90
2022/05/26 14:41:25;;;;;;;5.87;2.00;;;20.10;99.90;;;;;;6219373;23;20190;-89
2022/05/26 14:44:04;;;;;;;6.75;2.05;;;20.10;99.90;;;;;;6218222;23;20865;-91
2022/05/26 14:46:50;;;;;;;7.63;2.20;;;20.30;99.90;;;;;;6220119;23;20221;-93
2022/05/26 14:49:34;;;;;;;4.97;1.77;;;20.10;99.90;;;;;;6219326;23;20260;-93
2022/05/26 14:52:04;;;;;;;5.97;2.07;;;19.90;99.90;;;;;;6222213;23;20175;-91
2022/05/26 14:57:39;;;;;;;5.53;1.70;;;20.00;99.90;;;;;;6220300;23;20233;-90
2022/05/26 15:00:31;;;;;;;4.93;1.97;;;20.00;99.90;;;;;;6219794;23;20229;-91
2022/05/26 15:06:38;;;;;;;4.93;1.67;;;20.20;99.90;;;;;;6210396;23;20237;-93
2022/05/26 15:09:17;;;;;;;7.63;2.27;;;20.20;99.90;;;;;;6218683;23;20214;-91
2022/05/26 15:12:03;;;;;;;3.90;1.70;;;20.50;99.90;;;;;;6220338;23;20567;-91
2022/05/26 15:14:43;;;;;;;4.47;1.73;;;20.60;99.90;;;;;;6220438;23;20297;-94
2022/05/26 15:17:29;;;;;;;6.23;1.80;;;20.60;99.90;;;;;;6223959;23;20190;-90
2022/05/26 15:20:10;;;;;;;7.80;1.73;;;20.50;99.90;;;;;;6223978;23;20189;-90
2022/05/26 15:22:59;;;;;;;5.17;2.17;;;20.40;99.90;;;;;;6223378;23;20270;-92
2022/05/26 15:28:40;;;;;;;4.33;1.83;;;20.00;99.90;;;;;;6198656;23;20213;-92
2022/05/26 15:31:20;;;;;;;;;;;;;;;;;;;;;
2022/05/26 15:33:50;;;;;;;4.27;1.90;;;20.00;99.90;;;;;;6143972;23;20218;-90
2022/05/26 15:36:51;;;;;;;7.60;1.80;;;20.10;99.90;;;;;;6235227;23;20229;-91
2022/05/26 15:39:35;;;;;;;5.37;1.50;;;20.00;99.90;;;;;;6223158;23;20184;-92
2022/05/26 15:42:04;;;;;;;4.93;1.77;;;19.80;99.90;;;;;;6223251;23;20272;-90
2022/05/26 15:44:37;;;;;;;6.40;1.93;;;19.60;99.90;;;;;;6219193;23;20202;-91
2022/05/26 15:47:07;;;;;;;6.30;1.70;;;19.90;99.90;;;;;;6224507;23;20197;-96
2022/05/26 15:49:49;;;;;;;6.33;1.63;;;19.90;99.90;;;;;;6222029;23;20261;-95
2022/05/26 15:55:46;;;;;;;5.10;1.67;;;20.00;99.90;;;;;;6221253;23;20447;-90
2022/05/26 15:58:23;;;;;;;6.07;1.80;;;20.20;99.90;;;;;;6220908;23;20639;-90
2022/05/26 16:00:56;;;;;;;9.37;1.60;;;20.00;99.90;;;;;;6224376;23;20182;-91
2022/05/26 16:03:47;;;;;;;5.23;1.53;;;19.90;99.90;;;;;;6224444;23;20186;-92
2022/05/26 16:06:24;;;;;;;5.00;1.77;;;19.80;99.90;;;;;;6221591;23;20203;-93
2022/05/26 16:09:26;;;;;;;3.50;1.47;;;19.60;99.90;;;;;;6221002;23;20585;-92
2022/05/26 16:14:53;;;;;;;9.40;2.27;;;19.50;99.90;;;;;;6225444;23;20241;-96
2022/05/26 16:17:24;;;;;;;6.50;1.70;;;19.40;99.90;;;;;;6190941;23;20191;-89
2022/05/26 16:23:24;;;;;;;5.63;1.97;;;19.50;99.90;;;;;;6218741;23;20192;-94
2022/05/26 16:26:00;;;;;;;4.63;1.33;;;19.20;99.90;;;;;;6220176;23;20586;-94
2022/05/26 16:28:34;;;;;;;4.60;1.70;;;19.10;99.90;;;;;;6219444;23;20193;-88
2022/05/26 16:31:04;;;;;;;3.40;1.50;;;18.90;99.90;;;;;;6219458;23;20197;-95
2022/05/26 16:33:34;;;;;;;8.67;1.80;;;18.90;99.90;;;;;;6218789;23;20185;-89
2022/05/26 16:39:04;;;;;;;6.03;1.47;;;18.90;99.90;;;;;;6220632;23;20265;-91